Terminal Aerodrome Forecast
Issued by NWS

Home | Current Version | Previous Version | Graphics & Text | Print | Product List | Glossary On
Versions: 1 2 3 4 5 6 7 8 9 10 11 12 13 14 15 16 17 18 19 20 21 22 23 24
000
FTUS43 KLOT 120856 AAA
TAFDPA
TAF AMD
KDPA 120856Z 1209/1306 33016G26KT P6SM SCT035 OVC045
      TEMPO 1209/1211 -SHSN FEW025 OVC035
     FM121100 33015G22KT P6SM SCT035 SCT200
     FM122300 30008KT P6SM BKN100=

USA.gov is the U.S. government's official web portal to all federal, state and local government web resources and services.